createdAt,value
2022-08-09T00:02:30.361Z,18.69
2022-08-09T00:07:44.286Z,18.79
2022-08-09T00:12:47.164Z,18.84
2022-08-09T00:18:05.297Z,18.90
2022-08-09T00:23:56.663Z,18.92
2022-08-09T00:28:35.553Z,18.94
2022-08-09T00:33:50.557Z,18.91
2022-08-09T00:38:53.456Z,18.90
2022-08-09T00:44:14.427Z,18.88
2022-08-09T00:49:18.271Z,18.81
2022-08-09T00:54:34.962Z,18.70
2022-08-09T00:59:46.392Z,18.80
2022-08-09T01:04:56.964Z,18.76
2022-08-09T01:09:58.961Z,18.55
2022-08-09T01:15:06.040Z,19.00
2022-08-09T01:20:45.946Z,18.56
2022-08-09T01:26:26.128Z,18.52
2022-08-09T01:32:28.219Z,18.25
2022-08-09T01:36:55.145Z,18.13
2022-08-09T01:42:01.417Z,18.05
2022-08-09T01:47:07.800Z,18.00
2022-08-09T01:52:17.897Z,17.91
2022-08-09T01:57:27.257Z,17.97
2022-08-09T02:02:33.374Z,17.88
2022-08-09T02:08:35.882Z,17.95
2022-08-09T02:13:09.871Z,17.98
2022-08-09T02:18:12.306Z,17.98
2022-08-09T02:23:25.963Z,18.09
2022-08-09T02:28:43.401Z,18.19
2022-08-09T02:34:07.580Z,18.18
2022-08-09T02:39:20.022Z,18.35
2022-08-09T02:44:40.736Z,18.44
2022-08-09T02:50:01.813Z,18.59
2022-08-09T02:55:19.794Z,18.63
2022-08-09T03:00:26.369Z,18.69
2022-08-09T03:05:34.463Z,18.77
2022-08-09T03:10:38.289Z,18.86
2022-08-09T03:16:06.613Z,19.07
2022-08-09T03:21:05.808Z,19.20
2022-08-09T03:26:08.605Z,19.31
2022-08-09T03:31:22.544Z,19.42
2022-08-09T03:36:26.994Z,19.57
2022-08-09T03:41:45.909Z,19.73
2022-08-09T03:46:51.119Z,19.90
2022-08-09T03:52:00.125Z,20.19
2022-08-09T03:57:18.109Z,20.46
2022-08-09T04:02:30.563Z,20.57
2022-08-09T04:07:47.532Z,20.87
2022-08-09T04:12:55.322Z,21.19
2022-08-09T04:17:57.564Z,21.28
2022-08-09T04:23:00.048Z,21.43
2022-08-09T04:28:03.582Z,21.52
2022-08-09T04:33:05.931Z,21.66
2022-08-09T04:38:09.977Z,21.81
2022-08-09T04:43:12.373Z,21.94
2022-08-09T04:48:16.111Z,21.95
2022-08-09T04:53:18.473Z,21.90
2022-08-09T04:58:20.583Z,21.79
2022-08-09T05:03:41.176Z,21.88
2022-08-09T05:08:47.766Z,21.77
2022-08-09T05:13:50.231Z,21.78
2022-08-09T05:18:59.212Z,21.94
2022-08-09T05:24:03.937Z,22.19
2022-08-09T05:29:06.769Z,22.29
2022-08-09T05:34:08.763Z,22.18
2022-08-09T05:39:28.543Z,22.07
2022-08-09T05:44:32.803Z,21.98
2022-08-09T05:50:32.124Z,22.01
2022-08-09T05:54:57.219Z,22.40
2022-08-09T06:00:08.082Z,22.40
2022-08-09T06:05:14.276Z,22.45
2022-08-09T06:10:19.429Z,22.49
2022-08-09T06:15:21.503Z,22.53
2022-08-09T06:20:23.612Z,23.40
2022-08-09T06:25:26.542Z,24.88
2022-08-09T06:30:29.092Z,25.32
2022-08-09T06:35:56.468Z,25.23
2022-08-09T06:40:54.888Z,25.17
2022-08-09T06:46:10.545Z,24.72
2022-08-09T06:51:14.905Z,24.41
2022-08-09T06:56:18.955Z,24.38
2022-08-09T07:01:21.369Z,24.41
2022-08-09T07:06:27.901Z,24.55
2022-08-09T07:11:34.214Z,24.49
2022-08-09T07:16:55.419Z,24.19
2022-08-09T07:22:00.041Z,24.15
2022-08-09T07:27:02.547Z,24.19
2022-08-09T07:32:05.583Z,24.23
2022-08-09T07:37:15.582Z,23.99
2022-08-09T07:42:18.151Z,23.77
2022-08-09T07:47:20.873Z,23.73
2022-08-09T07:52:38.270Z,23.91
2022-08-09T07:57:46.847Z,24.58
2022-08-09T08:02:49.497Z,25.76
2022-08-09T08:08:43.231Z,27.21
2022-08-09T08:13:17.098Z,27.93
2022-08-09T08:18:22.282Z,27.74
2022-08-09T08:23:27.281Z,27.20
2022-08-09T08:28:32.832Z,27.19
2022-08-09T08:33:40.618Z,27.81
2022-08-09T08:38:56.389Z,28.58
2022-08-09T08:44:02.473Z,28.78
2022-08-09T08:49:07.585Z,29.00
2022-08-09T08:54:20.046Z,29.26
2022-08-09T08:59:22.943Z,29.57
2022-08-09T09:04:41.557Z,29.72
2022-08-09T09:10:01.979Z,29.60
2022-08-09T09:15:07.425Z,29.78
2022-08-09T09:20:15.338Z,30.10
2022-08-09T09:26:04.209Z,31.21
2022-08-09T09:31:17.560Z,31.54
2022-08-09T09:36:39.779Z,31.24
2022-08-09T09:41:54.302Z,31.35
2022-08-09T09:47:03.828Z,31.71
2022-08-09T09:52:16.298Z,31.20
2022-08-09T09:58:04.023Z,29.98
2022-08-09T10:02:56.238Z,29.11
2022-08-09T10:08:26.916Z,28.48
2022-08-09T10:13:43.261Z,28.21
2022-08-09T10:18:54.334Z,28.91
2022-08-09T10:24:00.417Z,28.76
2022-08-09T10:29:31.359Z,28.65
2022-08-09T10:34:33.963Z,28.41
2022-08-09T10:39:49.742Z,28.76
2022-08-09T10:45:10.628Z,29.41
2022-08-09T10:51:06.825Z,29.83
2022-08-09T10:56:27.705Z,30.18
2022-08-09T11:03:27.528Z,30.83
2022-08-09T11:07:03.626Z,31.16
2022-08-09T11:12:17.155Z,31.05
2022-08-09T11:17:22.317Z,31.44
2022-08-09T11:22:40.901Z,32.69
2022-08-09T11:28:02.735Z,34.62
2022-08-09T11:33:20.429Z,34.86
2022-08-09T11:38:28.533Z,35.22
2022-08-09T11:43:34.914Z,35.36
2022-08-09T11:48:50.758Z,35.41
2022-08-09T11:54:27.605Z,35.33
2022-08-09T11:59:33.668Z,35.38
2022-08-09T12:04:37.728Z,34.94
2022-08-09T12:09:40.395Z,36.17
2022-08-09T12:15:07.302Z,38.32
2022-08-09T12:20:21.983Z,38.73
2022-08-09T12:25:35.969Z,39.40
2022-08-09T12:30:40.061Z,38.62
2022-08-09T12:35:43.097Z,38.10
2022-08-09T12:40:47.968Z,38.07
2022-08-09T12:45:59.943Z,37.88
2022-08-09T12:51:03.930Z,38.37
2022-08-09T12:56:15.739Z,38.82
2022-08-09T13:01:30.282Z,37.94
2022-08-09T13:06:37.801Z,37.76
2022-08-09T13:11:46.926Z,37.74
2022-08-09T13:16:54.679Z,36.05
2022-08-09T13:23:00.420Z,34.67
2022-08-09T13:27:48.082Z,34.67
2022-08-09T13:32:57.522Z,35.32
2022-08-09T13:38:00.345Z,35.11
2022-08-09T13:43:05.130Z,34.70
2022-08-09T13:48:11.700Z,34.09
2022-08-09T13:53:16.809Z,33.62
2022-08-09T13:58:18.877Z,32.83
2022-08-09T14:04:02.336Z,31.83
2022-08-09T14:08:44.026Z,30.76
2022-08-09T14:14:22.003Z,30.22
2022-08-09T14:19:09.400Z,29.52
2022-08-09T14:24:22.013Z,28.96
2022-08-09T14:30:35.091Z,28.70
2022-08-09T14:34:56.879Z,28.26
2022-08-09T14:39:59.145Z,27.90
2022-08-09T14:46:40.171Z,27.36
2022-08-09T14:50:30.392Z,26.96
2022-08-09T14:55:33.163Z,26.62
2022-08-09T15:00:36.130Z,26.40
2022-08-09T15:05:39.599Z,26.07
2022-08-09T15:11:00.906Z,25.94
2022-08-09T15:16:07.881Z,25.75
2022-08-09T15:21:57.382Z,25.59
2022-08-09T15:26:32.446Z,25.43
2022-08-09T15:31:40.902Z,25.25
2022-08-09T15:36:48.216Z,25.02
2022-08-09T15:41:50.854Z,24.80
2022-08-09T15:46:53.112Z,24.66
2022-08-09T15:52:04.697Z,24.38
2022-08-09T15:57:09.471Z,24.02
2022-08-09T16:02:13.323Z,23.74
2022-08-09T16:07:16.256Z,23.59
2022-08-09T16:12:19.332Z,23.56
2022-08-09T16:17:22.061Z,23.48
2022-08-09T16:22:24.657Z,23.40
2022-08-09T16:27:29.885Z,23.26
2022-08-09T16:32:53.290Z,23.11
2022-08-09T16:37:56.994Z,22.94
2022-08-09T16:43:02.314Z,22.78
2022-08-09T16:48:39.216Z,22.63
2022-08-09T16:53:34.276Z,22.42
2022-08-09T16:58:39.767Z,22.24
2022-08-09T17:03:44.719Z,22.05
2022-08-09T17:09:01.559Z,21.90
2022-08-09T17:14:07.543Z,21.77
2022-08-09T17:19:10.647Z,21.63
2022-08-09T17:24:27.628Z,21.36
2022-08-09T17:29:37.945Z,21.32
2022-08-09T17:35:01.490Z,21.12
2022-08-09T17:40:06.996Z,21.08
2022-08-09T17:45:27.442Z,20.97
2022-08-09T17:50:56.004Z,20.89
2022-08-09T17:56:03.361Z,20.83
2022-08-09T18:01:10.148Z,20.74
2022-08-09T18:06:31.238Z,20.53
2022-08-09T18:12:05.517Z,20.51
2022-08-09T18:16:58.392Z,20.41
2022-08-09T18:22:01.464Z,20.32
2022-08-09T18:27:03.822Z,20.23
2022-08-09T18:32:09.668Z,20.15
2022-08-09T18:37:48.119Z,20.08
2022-08-09T18:42:34.882Z,20.00
2022-08-09T18:47:38.814Z,19.92
2022-08-09T18:52:42.768Z,19.77
2022-08-09T18:57:45.563Z,19.78
2022-08-09T19:02:50.951Z,19.73
2022-08-09T19:08:04.459Z,19.62
2022-08-09T19:13:18.437Z,19.57
2022-08-09T19:18:36.492Z,19.52
2022-08-09T19:24:33.310Z,19.50
2022-08-09T19:29:15.427Z,19.45
2022-08-09T19:34:22.632Z,19.36
2022-08-09T19:39:29.238Z,19.31
2022-08-09T19:44:51.266Z,19.22
2022-08-09T19:50:08.467Z,19.18
2022-08-09T19:55:16.654Z,19.14
2022-08-09T20:00:21.575Z,19.09
2022-08-09T20:05:24.934Z,19.03
2022-08-09T20:10:36.463Z,19.00
2022-08-09T20:16:37.028Z,19.43
2022-08-09T20:21:02.010Z,18.96
2022-08-09T20:26:04.413Z,18.83
2022-08-09T20:31:09.279Z,18.79
2022-08-09T20:36:12.499Z,18.72
2022-08-09T20:41:14.860Z,18.73
2022-08-09T20:46:42.341Z,18.72
2022-08-09T20:51:40.924Z,18.68
2022-08-09T20:56:49.723Z,18.66
2022-08-09T21:01:55.630Z,18.57
2022-08-09T21:06:57.784Z,18.51
2022-08-09T21:18:21.221Z,18.51
2022-08-09T21:22:37.997Z,18.97
2022-08-09T21:27:52.681Z,18.44
2022-08-09T21:32:55.299Z,18.32
2022-08-09T21:38:00.523Z,18.20
2022-08-09T21:43:06.194Z,18.16
2022-08-09T21:48:08.589Z,17.97
2022-08-09T21:53:19.804Z,18.04
2022-08-09T21:58:32.861Z,17.99
2022-08-09T22:03:59.256Z,17.92
2022-08-09T22:09:00.269Z,17.87
2022-08-09T22:14:02.924Z,17.81
2022-08-09T22:19:53.395Z,17.75
2022-08-09T22:24:26.985Z,17.78
2022-08-09T22:29:46.579Z,17.74
2022-08-09T22:34:59.198Z,18.17
2022-08-09T22:40:20.032Z,17.76
2022-08-09T22:48:10.775Z,17.58
2022-08-09T22:50:53.098Z,17.49
2022-08-09T22:56:31.133Z,17.41
2022-08-09T23:01:18.108Z,17.34
2022-08-09T23:06:20.386Z,17.29
2022-08-09T23:11:37.902Z,17.25
2022-08-09T23:16:39.772Z,17.67
2022-08-09T23:21:42.168Z,17.13
2022-08-09T23:26:44.837Z,17.15
2022-08-09T23:31:50.175Z,17.12
2022-08-09T23:36:54.482Z,17.06
2022-08-09T23:41:56.391Z,17.54
2022-08-09T23:46:58.449Z,17.11
2022-08-09T23:52:00.389Z,17.51
2022-08-09T23:57:02.504Z,17.07
